Time;durP1;ratioP1;P1;durP2;ratioP2;P2;SDS_P1;SDS_P2;PMS_P1;PMS_P2;Temp;Humidity;BMP_temperature;BMP_pressure;BME280_temperature;BME280_humidity;BME280_pressure;Samples;Min_cycle;Max_cycle;Signal;HPM_P1;HPM_P2
2023/06/15 00:01:40;;;;;;;5.95;3.80;;;14.90;91.20;;;14.75;78.34;97135.72;5044512;28;21942;-37
2023/06/15 00:04:06;;;;;;;4.35;3.30;;;14.90;91.50;;;14.74;80.09;97139.31;5044024;28;20024;-38
2023/06/15 00:06:32;;;;;;;5.50;3.80;;;14.80;91.90;;;14.70;81.77;97133.34;5043096;28;21476;-38
2023/06/15 00:08:58;;;;;;;4.38;3.50;;;14.80;92.20;;;14.67;82.31;97130.84;5040529;28;20047;-37
2023/06/15 00:11:24;;;;;;;5.30;3.53;;;14.80;92.30;;;14.63;82.66;97137.28;5042515;28;20036;-38
2023/06/15 00:13:50;;;;;;;4.43;3.30;;;14.80;92.50;;;14.63;81.35;97131.97;5041077;28;20074;-39
2023/06/15 00:16:18;;;;;;;5.93;3.30;;;14.80;92.20;;;14.57;79.03;97123.47;5041954;28;20037;-38
2023/06/15 00:18:48;;;;;;;5.80;3.58;;;14.80;91.70;;;14.68;80.27;97135.22;5039353;28;20032;-37
2023/06/15 00:21:15;;;;;;;6.10;3.55;;;14.80;91.90;;;14.56;81.81;97117.31;5038102;28;20024;-39
2023/06/15 00:23:44;;;;;;;5.10;3.35;;;14.80;92.30;;;14.64;81.40;97146.97;5042983;28;20061;-37
2023/06/15 00:26:09;;;;;;;4.22;3.38;;;14.80;92.20;;;14.62;81.76;97148.81;5041665;28;20493;-37
2023/06/15 00:28:35;;;;;;;5.55;3.70;;;14.80;92.30;;;14.60;81.94;97145.41;5045368;28;20046;-37
2023/06/15 00:31:01;;;;;;;4.22;3.13;;;14.80;92.30;;;14.62;80.84;97146.19;5038514;28;20037;-38
2023/06/15 00:33:26;;;;;;;3.78;3.38;;;14.80;92.10;;;14.66;82.29;97141.53;5035615;28;20036;-38
2023/06/15 00:35:52;;;;;;;5.78;3.40;;;14.80;92.40;;;14.68;81.84;97147.66;5040608;28;20817;-39
2023/06/15 00:38:18;;;;;;;4.35;3.50;;;14.80;92.40;;;14.70;81.85;97156.38;5040096;28;20037;-38
2023/06/15 00:40:43;;;;;;;3.78;3.03;;;14.80;92.40;;;14.73;79.59;97152.69;5040268;28;20085;-37
2023/06/15 00:43:09;;;;;;;4.13;3.33;;;14.90;91.70;;;14.77;79.73;97154.19;5037526;28;20040;-37
2023/06/15 00:45:36;;;;;;;6.38;3.83;;;14.90;91.90;;;14.73;80.38;97139.41;5044190;28;20044;-38
2023/06/15 00:48:02;;;;;;;4.03;3.22;;;14.90;92.10;;;14.77;81.81;97154.19;5037704;28;20087;-38
2023/06/15 00:50:30;;;;;;;6.10;3.47;;;14.90;92.40;;;14.76;82.08;97150.69;5037943;28;21698;-37
2023/06/15 00:53:03;;;;;;;3.95;3.45;;;14.90;92.40;;;14.74;83.27;97154.41;5037832;28;20032;-38
2023/06/15 00:55:34;;;;;;;5.18;3.60;;;14.90;92.70;;;14.70;84.05;97156.38;5043363;28;20028;-37
2023/06/15 00:58:01;;;;;;;5.35;3.58;;;14.90;92.90;;;14.66;84.44;97153.03;5045524;28;20036;-38
2023/06/15 01:00:36;;;;;;;6.18;3.47;;;14.80;93.00;;;14.62;84.48;97154.13;5042535;28;20033;-37
2023/06/15 01:03:06;;;;;;;4.90;3.60;;;14.80;93.00;;;14.60;84.52;97150.72;5045863;28;20804;-38
2023/06/15 01:05:35;;;;;;;4.88;3.75;;;14.80;93.00;;;14.58;83.91;97159.72;5039733;28;20082;-38
2023/06/15 01:08:07;;;;;;;3.60;3.22;;;14.70;92.90;;;14.46;83.88;97147.97;5041920;28;20090;-37
2023/06/15 01:10:34;;;;;;;4.93;3.10;;;14.70;92.90;;;14.50;81.45;97157.47;5046063;28;20041;-38
2023/06/15 01:13:02;;;;;;;6.97;3.63;;;14.70;92.40;;;14.47;81.68;97160.31;5040567;28;20103;-38
2023/06/15 01:15:28;;;;;;;4.85;3.28;;;14.60;92.50;;;14.39;82.11;97152.78;5035694;28;20293;-37
2023/06/15 01:17:59;;;;;;;5.07;3.42;;;14.60;92.60;;;14.36;82.28;97152.09;5043673;28;20033;-37
2023/06/15 01:20:32;;;;;;;5.57;3.30;;;14.50;92.70;;;14.23;82.63;97138.63;5037908;28;20097;-37
2023/06/15 01:23:29;;;;;;;5.05;2.92;;;14.50;92.80;;;14.23;83.27;97147.47;5046193;28;20401;-39
2023/06/15 01:26:07;;;;;;;5.97;3.25;;;14.40;92.90;;;14.17;83.52;97147.81;5042405;28;20039;-37
2023/06/15 01:28:36;;;;;;;4.82;3.60;;;14.40;93.40;;;14.12;84.12;97155.16;5044098;28;20028;-38
2023/06/15 01:31:02;;;;;;;5.63;3.15;;;14.30;93.50;;;14.03;85.01;97145.06;5038944;28;20492;-39
2023/06/15 01:33:28;;;;;;;5.80;3.60;;;14.30;93.40;;;14.04;86.33;97152.09;5037770;28;20029;-39
2023/06/15 01:35:54;;;;;;;4.25;3.10;;;14.20;93.60;;;14.00;86.75;97162.00;5040459;28;20036;-37
2023/06/15 01:38:24;;;;;;;7.35;3.30;;;14.20;93.80;;;13.96;87.55;97152.47;5040109;28;20041;-38
2023/06/15 01:40:52;;;;;;;5.45;3.63;;;14.10;93.90;;;13.93;88.86;97157.97;5035885;28;20028;-40
2023/06/15 01:43:22;;;;;;;5.93;3.20;;;14.00;94.20;;;13.87;89.42;97158.28;5034208;28;20062;-38
2023/06/15 01:45:50;;;;;;;4.07;3.13;;;14.10;94.40;;;13.84;90.01;97154.00;5042144;28;20033;-37
2023/06/15 01:48:16;;;;;;;5.10;3.53;;;14.00;94.50;;;13.81;90.25;97155.97;5037068;28;21905;-39
2023/06/15 01:50:42;;;;;;;5.57;3.30;;;14.00;94.50;;;13.79;91.05;97152.56;5045528;28;20036;-37
2023/06/15 01:53:08;;;;;;;4.63;3.45;;;14.00;94.70;;;13.75;91.13;97152.72;5042371;28;20032;-37
2023/06/15 01:55:35;;;;;;;4.30;3.30;;;13.90;94.80;;;13.72;91.98;97147.56;5047343;28;20024;-38
2023/06/15 01:58:01;;;;;;;4.90;3.50;;;13.90;95.00;;;13.68;91.59;97158.44;5047620;28;20036;-37
2023/06/15 02:00:27;;;;;;;6.25;3.50;;;13.90;94.90;;;13.68;90.79;97155.78;5041826;28;20800;-37
2023/06/15 02:02:53;;;;;;;5.00;3.42;;;13.80;94.70;;;13.63;90.00;97152.50;5049416;28;20044;-37
2023/06/15 02:05:19;;;;;;;4.97;3.42;;;13.80;94.60;;;13.63;89.92;97157.81;5046654;28;20040;-37
2023/06/15 02:07:45;;;;;;;4.20;3.50;;;13.80;94.60;;;13.58;90.95;97150.09;5047750;28;20056;-38
2023/06/15 02:10:11;;;;;;;4.10;3.35;;;13.80;94.90;;;13.54;91.45;97144.09;5045622;28;20021;-38
2023/06/15 02:12:37;;;;;;;3.75;3.40;;;13.70;95.00;;;13.51;91.31;97151.34;5048292;28;20477;-37
2023/06/15 02:15:03;;;;;;;4.80;3.50;;;13.70;95.00;;;13.45;90.72;97152.53;5046349;28;20037;-38
2023/06/15 02:17:38;;;;;;;4.93;3.17;;;13.60;94.90;;;13.43;91.13;97157.06;5048941;28;20036;-37
2023/06/15 02:20:07;;;;;;;6.63;3.45;;;13.60;95.00;;;13.40;90.93;97151.06;5042954;28;20667;-38
2023/06/15 02:22:33;;;;;;;4.35;3.03;;;13.60;95.00;;;13.38;91.98;97148.50;5048384;28;20048;-40
2023/06/15 02:24:58;;;;;;;5.80;3.25;;;13.50;95.20;;;13.31;92.07;97150.59;5046311;28;20044;-37
2023/06/15 02:27:24;;;;;;;3.53;3.22;;;13.50;95.30;;;13.31;92.27;97153.25;5029826;28;20047;-37
2023/06/15 02:29:50;;;;;;;3.70;2.95;;;13.40;95.40;;;13.29;93.15;97159.53;5042346;28;20041;-38
2023/06/15 02:32:34;;;;;;;4.78;3.47;;;13.50;95.60;;;13.26;93.53;97149.09;5038082;28;20494;-37
2023/06/15 02:35:06;;;;;;;5.22;3.55;;;13.40;95.70;;;13.25;92.67;97150.06;5044067;28;20448;-38
2023/06/15 02:37:32;;;;;;;;;;;13.40;95.60;;;13.14;93.90;97138.22;5046321;28;20063;-38
2023/06/15 02:39:58;;;;;;;5.00;3.40;;;13.40;95.80;;;13.17;95.60;97138.06;5048711;28;20540;-38
2023/06/15 02:42:24;;;;;;;6.90;3.67;;;13.40;96.20;;;13.13;96.73;97149.72;5044812;28;20043;-39
2023/06/15 02:44:50;;;;;;;4.20;3.65;;;13.30;96.50;;;13.10;96.02;97154.31;5041850;28;20039;-40
2023/06/15 02:47:15;;;;;;;4.80;3.63;;;13.30;96.30;;;13.09;95.29;97148.19;5061035;28;20877;-37
2023/06/15 02:49:41;;;;;;;4.50;3.38;;;13.30;96.20;;;13.08;96.31;97156.19;5044416;28;20025;-38
2023/06/15 02:52:07;;;;;;;5.30;3.80;;;13.30;96.50;;;13.04;95.60;97147.56;5048042;28;20039;-37
2023/06/15 02:54:34;;;;;;;6.78;3.55;;;13.30;96.40;;;13.03;94.48;97147.63;5042312;28;20061;-37
2023/06/15 02:57:01;;;;;;;4.68;3.40;;;13.20;96.20;;;13.03;94.78;97153.81;5042377;28;20079;-37
2023/06/15 02:59:26;;;;;;;3.80;3.10;;;13.20;96.30;;;12.99;96.24;97153.09;5042074;28;20094;-36
2023/06/15 03:01:52;;;;;;;6.32;3.50;;;13.20;96.60;;;12.97;98.02;97154.97;5043302;28;20033;-37
2023/06/15 03:04:22;;;;;;;5.15;3.83;;;13.20;97.00;;;12.94;98.86;97159.56;5042831;28;20075;-36
2023/06/15 03:06:51;;;;;;;4.80;3.90;;;13.10;97.20;;;12.89;99.41;97161.59;5045418;28;20489;-39
2023/06/15 03:09:17;;;;;;;4.90;3.60;;;13.10;97.40;;;12.80;99.49;97158.44;5046335;28;20029;-37
2023/06/15 03:11:43;;;;;;;6.95;3.90;;;13.00;97.40;;;12.77;98.55;97163.88;5042358;28;20029;-39
2023/06/15 03:14:12;;;;;;;4.03;3.42;;;13.00;97.30;;;12.76;99.58;97169.28;5041676;28;20107;-37
2023/06/15 03:16:39;;;;;;;3.80;3.40;;;13.00;97.60;;;12.73;98.34;97166.78;5048314;28;20060;-38
2023/06/15 03:19:05;;;;;;;6.53;3.80;;;13.00;97.30;;;12.74;99.10;97171.13;5042878;28;20087;-38
2023/06/15 03:21:31;;;;;;;7.22;3.70;;;12.90;97.50;;;12.71;99.77;97172.13;5040202;28;20033;-37
2023/06/15 03:23:57;;;;;;;6.10;3.90;;;12.90;97.70;;;12.73;99.90;97166.78;5040245;28;20041;-38
2023/06/15 03:26:26;;;;;;;3.83;3.25;;;12.90;97.80;;;12.75;99.81;97171.03;5042252;28;20443;-38
2023/06/15 03:28:53;;;;;;;3.63;3.20;;;13.00;97.90;;;12.77;100.00;97174.47;5043458;28;20645;-38
2023/06/15 03:31:19;;;;;;;5.85;3.58;;;13.00;98.00;;;12.78;100.00;97178.84;5042418;28;20082;-38
2023/06/15 03:33:48;;;;;;;4.15;3.40;;;13.00;98.00;;;12.80;100.00;97179.63;5043750;28;20588;-39
2023/06/15 03:36:13;;;;;;;6.13;3.75;;;13.00;98.10;;;12.79;99.96;97172.63;5039350;28;20021;-37
2023/06/15 03:38:42;;;;;;;6.32;3.58;;;13.00;98.00;;;12.84;99.71;97168.88;5043429;28;20510;-39
2023/06/15 03:41:08;;;;;;;4.28;3.40;;;13.00;98.10;;;12.87;100.00;97169.59;5045165;28;20154;-38
2023/06/15 03:43:37;;;;;;;4.32;3.65;;;13.10;98.30;;;12.90;100.00;97172.09;5042538;28;20409;-38
2023/06/15 03:46:05;;;;;;;4.13;3.30;;;13.10;98.50;;;12.85;99.89;97165.28;5036131;28;20055;-38
2023/06/15 03:48:30;;;;;;;4.90;3.35;;;13.10;98.30;;;12.95;100.00;97177.13;5045747;28;20822;-37
2023/06/15 03:50:56;;;;;;;4.57;3.45;;;13.20;98.50;;;13.04;100.00;97183.78;5040800;28;20322;-38
2023/06/15 03:53:24;;;;;;;4.50;3.60;;;13.20;98.60;;;13.14;100.00;97185.88;5045458;28;20024;-38
2023/06/15 03:55:50;;;;;;;3.83;3.20;;;13.30;98.50;;;13.25;99.76;97190.63;5042575;28;20020;-37
2023/06/15 03:58:17;;;;;;;4.90;3.58;;;13.40;98.50;;;13.38;98.51;97190.03;5045365;28;21000;-39
2023/06/15 04:00:45;;;;;;;4.22;3.50;;;13.50;98.20;;;13.41;98.57;97180.13;5042345;28;20841;-39
2023/06/15 04:03:12;;;;;;;4.22;3.60;;;13.70;98.20;;;13.65;97.84;97200.97;5043807;28;20040;-39
2023/06/15 04:05:38;;;;;;;5.95;3.30;;;13.80;98.10;;;13.81;96.65;97206.34;5042257;28;20028;-38
2023/06/15 04:08:04;;;;;;;8.27;3.78;;;14.00;97.90;;;13.93;95.17;97195.09;5045259;28;20035;-40
2023/06/15 04:10:30;;;;;;;4.47;3.40;;;14.20;97.70;;;14.09;94.59;97200.41;5043859;28;20028;-38
2023/06/15 04:12:55;;;;;;;5.00;3.38;;;14.30;97.50;;;14.21;92.57;97196.22;5032054;28;20054;-38
2023/06/15 04:15:21;;;;;;;5.68;3.10;;;14.50;97.10;;;14.43;91.42;97201.22;5044530;28;20044;-38
2023/06/15 04:17:48;;;;;;;5.07;3.47;;;14.60;96.80;;;14.62;89.24;97211.69;5045974;28;20052;-37
2023/06/15 04:20:14;;;;;;;7.72;3.22;;;14.80;96.30;;;14.80;87.04;97220.41;5042423;28;20028;-37
2023/06/15 04:22:40;;;;;;;5.97;3.70;;;14.90;95.90;;;14.94;86.09;97225.78;5043002;28;20032;-35
2023/06/15 04:25:06;;;;;;;6.15;3.42;;;15.10;95.60;;;15.10;84.93;97227.56;5040676;28;20036;-36
2023/06/15 04:27:34;;;;;;;5.07;3.60;;;15.30;95.40;;;15.21;83.22;97222.47;5044510;28;20052;-36
2023/06/15 04:30:00;;;;;;;4.38;3.50;;;15.40;95.00;;;15.33;81.57;97228.88;5038460;28;20250;-36
2023/06/15 04:32:29;;;;;;;3.75;3.15;;;15.50;94.70;;;15.47;80.48;97226.25;5042609;28;20090;-36
2023/06/15 04:35:03;;;;;;;3.88;3.47;;;15.60;94.30;;;15.63;78.20;97231.50;5043431;28;20035;-36
2023/06/15 04:37:29;;;;;;;5.43;3.53;;;15.80;93.80;;;15.75;73.77;97236.09;5042776;28;20674;-36
2023/06/15 04:39:59;;;;;;;5.32;3.70;;;15.90;93.20;;;15.77;72.35;97223.59;5045045;28;20086;-36
2023/06/15 04:42:26;;;;;;;4.05;3.10;;;16.00;92.50;;;15.98;73.93;97236.53;5035893;28;20543;-36
2023/06/15 04:44:53;;;;;;;5.00;3.10;;;16.10;92.60;;;16.07;74.04;97241.28;5038190;28;20029;-36
2023/06/15 04:47:18;;;;;;;6.20;3.25;;;16.20;92.80;;;16.14;75.55;97245.25;5040346;28;20024;-38
2023/06/15 04:49:44;;;;;;;4.90;3.17;;;16.20;93.00;;;16.19;75.34;97245.84;5040595;28;20363;-37
2023/06/15 04:52:10;;;;;;;4.53;3.20;;;16.30;93.10;;;16.22;74.85;97242.13;5041570;28;20032;-37
2023/06/15 04:54:36;;;;;;;4.40;3.50;;;16.30;92.90;;;16.18;73.84;97238.78;5039488;28;20032;-37
2023/06/15 04:57:02;;;;;;;4.32;3.72;;;16.30;92.70;;;16.16;72.97;97247.84;5046580;28;20041;-37
2023/06/15 04:59:27;;;;;;;7.93;3.22;;;16.30;92.30;;;16.10;73.38;97246.41;5042279;28;20078;-37
2023/06/15 05:01:53;;;;;;;5.82;3.28;;;16.20;92.40;;;16.06;74.35;97246.69;5040171;28;20032;-37
2023/06/15 05:04:22;;;;;;;5.22;3.78;;;16.20;92.60;;;16.02;75.04;97254.00;5043177;28;20032;-39
2023/06/15 05:06:48;;;;;;;4.25;3.53;;;16.20;92.90;;;15.98;75.18;97255.13;5037360;28;21022;-38
2023/06/15 05:09:13;;;;;;;4.85;3.63;;;16.10;92.80;;;15.90;75.34;97260.06;5039017;28;20294;-37
2023/06/15 05:11:39;;;;;;;4.13;3.25;;;16.00;92.80;;;15.83;76.89;97255.13;5040617;28;20067;-37
2023/06/15 05:14:05;;;;;;;3.92;3.08;;;16.00;93.20;;;15.85;77.86;97255.03;5040167;28;20031;-35
2023/06/15 05:16:31;;;;;;;6.32;3.80;;;16.00;93.40;;;15.88;77.07;97256.63;5044110;28;20025;-35
2023/06/15 05:18:56;;;;;;;4.53;3.53;;;16.00;93.30;;;15.87;74.53;97254.94;5041230;28;20440;-35
2023/06/15 05:21:22;;;;;;;6.82;3.88;;;16.00;92.70;;;15.92;74.66;97255.53;5034586;28;20045;-35
2023/06/15 05:23:48;;;;;;;5.05;3.58;;;16.00;92.80;;;16.08;74.34;97260.75;5038602;28;20315;-35
2023/06/15 05:26:15;;;;;;;6.03;3.90;;;16.10;92.80;;;16.35;72.94;97258.19;5045043;28;20486;-35
2023/06/15 05:28:40;;;;;;;4.30;3.65;;;16.20;92.70;;;16.89;69.27;97255.66;5057344;28;20033;-37
2023/06/15 05:31:08;;;;;;;5.85;3.70;;;16.50;92.20;;;17.42;66.60;97258.41;5048391;28;20020;-36
2023/06/15 05:33:35;;;;;;;6.32;4.55;;;16.80;91.90;;;17.63;64.83;97260.59;5044144;28;20032;-38
2023/06/15 05:36:01;;;;;;;4.65;3.50;;;17.10;91.50;;;17.67;65.16;97262.94;5044647;28;20219;-38
2023/06/15 05:38:26;;;;;;;8.52;4.00;;;17.20;91.40;;;17.54;64.83;97262.06;5046089;28;20050;-38
2023/06/15 05:40:52;;;;;;;5.70;3.70;;;17.30;91.20;;;17.36;66.40;97267.66;5048566;28;20031;-37
2023/06/15 05:43:19;;;;;;;4.10;3.28;;;17.20;91.20;;;17.21;68.74;97254.50;5039853;28;20520;-36
2023/06/15 05:45:47;;;;;;;5.07;3.75;;;17.20;91.70;;;17.18;69.29;97261.72;5043561;28;20037;-36
2023/06/15 05:48:13;;;;;;;5.85;3.78;;;17.20;91.80;;;17.12;66.88;97266.59;5041603;28;20658;-36
2023/06/15 05:50:39;;;;;;;6.20;3.78;;;17.20;91.10;;;17.12;67.47;97269.28;5042179;28;20035;-38
2023/06/15 05:53:05;;;;;;;4.60;3.50;;;17.20;91.10;;;17.05;67.59;97257.31;5035687;28;20024;-39
2023/06/15 05:55:31;;;;;;;7.28;3.85;;;17.20;91.20;;;17.24;68.55;97280.94;5043825;28;20031;-35
2023/06/15 05:57:57;;;;;;;4.13;3.72;;;17.30;91.40;;;17.34;66.72;97282.91;5044050;28;20145;-35
2023/06/15 06:00:25;;;;;;;5.93;3.45;;;17.40;91.00;;;17.44;65.16;97283.13;5042930;28;20529;-35
2023/06/15 06:02:52;;;;;;;4.93;3.88;;;17.50;90.70;;;17.58;64.84;97276.03;5040481;28;20025;-35
2023/06/15 06:05:18;;;;;;;4.53;3.47;;;17.60;90.60;;;17.59;60.37;97264.44;5043773;28;20032;-35
2023/06/15 06:07:47;;;;;;;5.75;3.45;;;17.70;88.50;;;17.85;60.14;97279.53;5043319;28;20483;-35
2023/06/15 06:10:13;;;;;;;5.35;3.60;;;17.80;88.50;;;17.99;59.01;97283.91;5043654;28;20088;-36
2023/06/15 06:12:39;;;;;;;5.47;3.50;;;18.00;87.80;;;18.12;56.68;97287.47;5042398;28;20078;-36
2023/06/15 06:15:05;;;;;;;4.18;3.33;;;18.20;86.40;;;18.23;56.61;97292.06;5043430;28;20028;-36
2023/06/15 06:17:31;;;;;;;4.57;3.70;;;18.20;85.80;;;18.30;55.47;97293.34;5044503;28;21024;-36
2023/06/15 06:19:57;;;;;;;6.78;3.25;;;18.40;85.00;;;18.42;55.02;97298.78;5044679;28;20106;-36
2023/06/15 06:22:23;;;;;;;5.25;3.60;;;18.40;84.80;;;18.56;54.97;97304.00;5048478;28;20573;-36
2023/06/15 06:24:49;;;;;;;6.20;3.83;;;18.50;84.80;;;18.71;54.92;97296.69;5043572;28;20036;-36
2023/06/15 06:27:14;;;;;;;5.63;3.42;;;18.70;85.00;;;18.86;53.85;97298.31;5041615;28;20029;-36
2023/06/15 06:29:41;;;;;;;4.60;4.00;;;18.80;83.90;;;18.96;52.47;97300.31;5041987;28;20356;-36
2023/06/15 06:32:07;;;;;;;7.22;3.55;;;19.00;83.30;;;19.09;51.87;97293.09;5045327;28;20401;-36
2023/06/15 06:34:35;;;;;;;8.10;4.03;;;19.10;82.00;;;19.09;52.98;97295.75;5043510;28;20083;-36
2023/06/15 06:37:05;;;;;;;4.18;3.30;;;19.10;82.50;;;19.22;52.25;97299.25;5042723;28;20040;-36
2023/06/15 06:39:32;;;;;;;4.72;3.67;;;19.20;82.30;;;19.34;52.39;97302.81;5042891;28;20489;-36
2023/06/15 06:41:58;;;;;;;4.78;3.40;;;19.30;82.20;;;19.44;51.84;97295.00;5038422;28;20044;-36
2023/06/15 06:44:24;;;;;;;6.68;4.10;;;19.40;82.00;;;19.56;50.33;97299.44;5029946;28;20099;-36
2023/06/15 06:46:50;;;;;;;5.35;3.55;;;19.50;80.90;;;19.62;51.16;97304.31;5042586;28;20241;-36
2023/06/15 06:49:15;;;;;;;4.80;3.75;;;19.50;81.00;;;19.78;49.76;97298.69;5032166;28;20399;-36
2023/06/15 06:51:41;;;;;;;4.95;3.38;;;19.60;80.20;;;19.84;50.47;97302.72;5038997;28;20036;-36
2023/06/15 06:54:07;;;;;;;4.00;3.50;;;19.70;80.40;;;19.98;51.59;97307.84;5040615;28;20525;-36
2023/06/15 06:56:32;;;;;;;4.70;3.90;;;19.80;81.90;;;20.08;50.30;97300.00;5044441;28;20027;-36
2023/06/15 06:58:58;;;;;;;5.18;3.40;;;20.00;81.00;;;20.21;50.04;97308.78;5046197;28;20131;-36
2023/06/15 07:01:24;;;;;;;4.97;3.47;;;20.10;80.40;;;20.22;49.63;97312.28;5040543;28;20033;-36
2023/06/15 07:03:50;;;;;;;6.00;4.10;;;20.10;79.50;;;20.28;50.48;97317.19;5040026;28;20043;-36
2023/06/15 07:06:16;;;;;;;5.15;3.78;;;20.20;81.80;;;20.37;50.55;97316.47;5035506;28;20460;-36
2023/06/15 07:08:42;;;;;;;4.80;3.55;;;20.30;80.80;;;20.47;50.26;97316.59;5039502;28;20036;-36
2023/06/15 07:11:08;;;;;;;5.80;3.13;;;20.40;80.40;;;20.55;50.49;97316.00;5041988;28;20032;-36
2023/06/15 07:13:34;;;;;;;4.55;3.83;;;20.40;80.90;;;20.53;48.49;97325.97;5044868;28;20071;-36
2023/06/15 07:15:59;;;;;;;4.97;3.50;;;20.50;79.00;;;20.53;48.87;97320.59;5045578;28;20555;-36
2023/06/15 07:18:26;;;;;;;5.38;3.70;;;20.50;78.40;;;20.58;49.69;97316.63;5045085;28;20618;-36
2023/06/15 07:20:54;;;;;;;4.82;3.40;;;20.50;79.40;;;20.67;51.79;97319.56;5047652;28;20039;-36
2023/06/15 07:23:22;;;;;;;6.97;4.80;;;20.60;81.70;;;20.68;49.59;97316.75;5043664;28;20288;-36
2023/06/15 07:25:52;;;;;;;8.77;4.40;;;20.70;79.70;;;20.75;49.16;97317.97;5044046;28;20666;-36
2023/06/15 07:28:19;;;;;;;7.50;3.88;;;20.70;78.90;;;20.83;49.28;97320.03;5046099;28;20040;-38
2023/06/15 07:30:49;;;;;;;7.40;4.30;;;20.70;78.90;;;20.85;47.76;97310.03;5046319;28;20398;-37
2023/06/15 07:33:15;;;;;;;6.20;3.55;;;20.70;77.20;;;20.83;48.65;97311.16;5046285;28;20418;-37
2023/06/15 07:35:42;;;;;;;5.35;4.30;;;20.70;77.60;;;20.88;48.98;97307.13;5044373;28;20021;-38
2023/06/15 07:38:08;;;;;;;7.80;3.92;;;20.80;79.00;;;20.91;48.47;97309.56;5042737;28;20161;-39
2023/06/15 07:40:34;;;;;;;6.72;4.13;;;20.80;78.80;;;20.93;47.95;97306.75;5045784;28;20498;-38
2023/06/15 07:42:59;;;;;;;7.28;4.70;;;20.90;78.50;;;20.75;49.02;97315.28;5044524;28;20051;-38
2023/06/15 07:45:25;;;;;;;6.05;4.35;;;20.90;78.30;;;20.76;49.11;97308.09;5045046;28;20508;-39
2023/06/15 07:47:51;;;;;;;6.70;3.85;;;20.80;78.80;;;20.84;49.90;97321.75;5045867;28;20052;-38
2023/06/15 07:50:17;;;;;;;8.32;3.70;;;20.90;79.10;;;20.95;49.11;97307.47;5046760;28;20118;-38
2023/06/15 07:52:43;;;;;;;5.47;3.58;;;21.00;78.60;;;21.09;49.95;97320.63;5046964;28;20115;-36
2023/06/15 07:55:08;;;;;;;6.18;3.90;;;21.00;79.20;;;21.15;50.29;97311.22;5048224;28;20538;-37
2023/06/15 07:57:35;;;;;;;6.65;3.63;;;21.10;79.40;;;21.22;48.82;97303.53;5045217;28;20029;-36
2023/06/15 08:00:06;;;;;;;7.30;4.15;;;21.20;78.30;;;21.27;49.12;97304.88;5044684;28;20063;-36
2023/06/15 08:02:32;;;;;;;7.80;4.30;;;21.20;78.40;;;21.32;50.17;97312.56;5039384;28;20134;-36
2023/06/15 08:04:58;;;;;;;8.23;4.15;;;21.30;80.20;;;21.39;48.56;97313.75;5046754;28;20028;-36
2023/06/15 08:07:23;;;;;;;5.85;4.00;;;21.40;78.30;;;21.44;47.51;97316.03;5041574;28;20047;-36
2023/06/15 08:09:49;;;;;;;6.47;4.30;;;21.40;77.10;;;21.52;49.42;97314.47;5040218;28;20040;-36
2023/06/15 08:12:17;;;;;;;5.95;3.80;;;21.40;79.10;;;21.60;48.15;97310.28;5043085;28;20029;-36
2023/06/15 08:14:42;;;;;;;5.43;3.92;;;21.50;77.70;;;21.65;47.85;97305.38;5043016;28;20032;-36
2023/06/15 08:17:08;;;;;;;5.32;4.10;;;21.60;76.80;;;21.73;46.82;97302.91;5043281;28;20972;-36
2023/06/15 08:19:34;;;;;;;6.07;3.40;;;21.70;76.30;;;21.81;47.16;97292.38;5047265;28;20031;-36
2023/06/15 08:21:59;;;;;;;4.78;3.92;;;21.80;76.20;;;21.98;46.54;97298.16;5041884;28;20035;-36
2023/06/15 08:24:25;;;;;;;8.13;3.75;;;22.00;75.90;;;22.04;45.54;97301.16;5044927;28;20095;-36
2023/06/15 08:26:51;;;;;;;5.50;4.07;;;22.00;74.70;;;22.17;46.17;97310.88;5043478;28;20067;-36
2023/06/15 08:29:16;;;;;;;5.90;4.55;;;22.10;75.30;;;22.16;45.64;97312.69;5042061;28;20036;-36
2023/06/15 08:31:42;;;;;;;5.38;3.70;;;22.20;73.80;;;22.22;45.06;97312.19;5044225;28;20504;-36
2023/06/15 08:34:08;;;;;;;8.98;3.80;;;22.20;73.90;;;22.18;44.83;97304.50;5044023;28;20017;-36
2023/06/15 08:36:34;;;;;;;4.03;3.58;;;22.20;72.80;;;22.26;45.71;97305.56;5039124;28;20134;-36
2023/06/15 08:39:00;;;;;;;6.70;4.63;;;22.20;74.00;;;22.33;44.69;97310.44;5043718;28;20490;-36
2023/06/15 08:41:27;;;;;;;5.28;4.18;;;22.30;73.20;;;22.29;45.07;97307.16;5042347;28;20037;-36
2023/06/15 08:43:53;;;;;;;4.82;3.83;;;22.20;73.50;;;22.36;47.42;97311.03;5039646;28;20040;-36
2023/06/15 08:46:22;;;;;;;3.65;3.28;;;22.30;76.00;;;22.45;45.53;97309.34;5041025;28;20399;-36
2023/06/15 08:48:52;;;;;;;5.53;4.43;;;22.40;74.40;;;22.52;47.85;97310.53;5045045;28;20040;-36
2023/06/15 08:51:19;;;;;;;4.20;3.75;;;22.40;76.20;;;22.63;46.12;97307.75;5039345;28;20067;-36
2023/06/15 08:53:47;;;;;;;6.35;4.03;;;22.60;74.90;;;22.69;44.67;97303.69;5032639;28;20497;-36
2023/06/15 08:56:13;;;;;;;4.20;3.40;;;22.60;73.50;;;22.74;45.49;97311.31;5042063;28;20029;-37
2023/06/15 08:58:49;;;;;;;4.80;3.50;;;22.80;73.50;;;22.87;45.95;97306.59;5043675;28;20406;-36
2023/06/15 09:01:23;;;;;;;6.22;4.22;;;22.80;75.00;;;22.87;44.25;97307.44;5040029;28;20048;-36
2023/06/15 09:03:52;;;;;;;7.60;3.47;;;22.80;72.60;;;22.83;44.44;97306.00;5035532;28;20124;-36
2023/06/15 09:06:19;;;;;;;6.85;3.67;;;22.80;70.40;;;22.81;42.48;97301.75;5039068;28;20036;-36
2023/06/15 09:08:46;;;;;;;7.95;3.70;;;22.80;70.70;;;22.76;42.57;97304.84;5044337;28;20128;-36
2023/06/15 09:11:12;;;;;;;6.47;3.75;;;22.70;70.30;;;22.73;43.42;97299.72;5042098;28;20024;-36
2023/06/15 09:13:37;;;;;;;6.93;4.10;;;22.70;70.40;;;22.80;41.72;97310.81;5042761;28;20035;-36
2023/06/15 09:16:08;;;;;;;7.65;3.70;;;22.80;68.90;;;22.82;42.56;97309.66;5046480;28;20040;-36
2023/06/15 09:18:45;;;;;;;4.22;3.60;;;22.80;69.70;;;22.88;41.63;97311.84;5041049;28;20048;-36
2023/06/15 09:21:16;;;;;;;4.20;3.78;;;22.80;69.30;;;22.96;42.13;97299.53;5043948;28;20492;-36
2023/06/15 09:23:46;;;;;;;6.43;3.67;;;22.90;69.50;;;23.02;41.96;97302.53;5039911;28;20032;-36
2023/06/15 09:26:26;;;;;;;10.02;4.40;;;22.90;69.60;;;23.05;43.21;97304.13;5040830;28;20356;-36
2023/06/15 09:28:57;;;;;;;5.05;3.97;;;23.00;70.70;;;23.10;42.07;97304.56;5043547;28;20071;-36
2023/06/15 09:31:35;;;;;;;7.68;3.83;;;23.10;69.10;;;23.06;39.81;97304.00;5041934;28;20517;-36
2023/06/15 09:34:04;;;;;;;4.80;4.00;;;23.10;66.70;;;23.12;41.33;97297.22;5043724;28;20060;-36
2023/06/15 09:36:34;;;;;;;5.40;3.63;;;23.10;67.50;;;23.14;42.19;97300.59;5042710;28;20163;-36
2023/06/15 09:39:00;;;;;;;10.00;3.92;;;23.10;68.60;;;23.15;39.52;97305.00;5042441;28;20025;-36
2023/06/15 09:41:25;;;;;;;3.58;3.28;;;23.20;65.40;;;23.27;40.51;97292.28;5045645;28;20082;-36
2023/06/15 09:43:51;;;;;;;4.13;3.58;;;23.20;66.90;;;23.39;40.99;97301.94;5042569;28;20059;-36
2023/06/15 09:46:19;;;;;;;6.40;4.10;;;23.30;67.80;;;23.57;40.94;97298.56;5043255;28;20032;-36
2023/06/15 09:48:48;;;;;;;4.47;3.35;;;23.50;68.10;;;23.60;39.38;97296.44;5042448;28;20210;-36
2023/06/15 09:51:20;;;;;;;4.43;3.80;;;23.60;65.10;;;23.81;40.04;97309.81;5044840;28;20036;-36
2023/06/15 09:53:47;;;;;;;4.07;3.50;;;23.80;67.20;;;23.83;37.41;97293.47;5043692;28;20626;-36
2023/06/15 09:56:13;;;;;;;6.63;3.35;;;23.90;63.30;;;23.95;37.31;97302.28;5043580;28;20071;-36
2023/06/15 09:58:39;;;;;;;5.25;3.70;;;24.00;62.10;;;24.03;37.56;97305.13;5043410;28;20056;-36
2023/06/15 10:01:10;;;;;;;3.90;3.10;;;24.00;62.60;;;24.16;35.99;97302.94;5042654;28;20100;-36
2023/06/15 10:03:37;;;;;;;4.00;3.20;;;24.10;60.30;;;24.15;36.05;97308.47;5041974;28;20883;-36
2023/06/15 10:06:12;;;;;;;4.95;3.30;;;24.10;60.10;;;24.12;36.47;97304.25;5041756;28;20064;-37
2023/06/15 10:08:41;;;;;;;5.47;3.42;;;24.20;60.50;;;24.09;36.70;97309.91;5043728;28;20033;-36
2023/06/15 10:11:09;;;;;;;4.10;3.40;;;24.10;60.40;;;24.07;36.79;97306.50;5044115;28;20029;-36
2023/06/15 10:13:47;;;;;;;3.33;2.85;;;24.10;60.90;;;24.11;36.34;97307.91;5045332;28;20046;-36
2023/06/15 10:16:15;;;;;;;4.38;3.30;;;24.10;60.60;;;23.98;36.31;97307.38;5042952;28;20040;-38
2023/06/15 10:18:43;;;;;;;4.45;3.25;;;24.00;59.90;;;24.09;36.92;97304.53;5062547;22;20744;-36
2023/06/15 10:21:15;;;;;;;3.58;3.13;;;24.10;61.90;;;24.23;36.18;97305.06;5030243;28;20037;-35